< < Back
Terminal Aerodrome Forecast


Current Version              Previous Versions:   1  2  3  4  5  6  7  8  9  

Terminal Aerodrome Forecast

736
FTUS42 KTAE 100520
TAFABY
TAF
KABY 100520Z 1006/1106 30005KT P6SM SKC
     FM101500 29015G25KT P6SM SKC
     FM110000 26005KT P6SM SKC=



Latest METAR

436
SAUS70 KWBC 101300 RRK
MTRABY
METAR KABY 101253Z AUTO 29007KT 10SM CLR M02/M08 A3023 RMK AO2 SLP237
T10171078


USA.gov is the U.S. government's official web portal to all federal, state and local government web resources and services.